Waidhofen an der Thaya, Austria
Current Conditions -  °F | °C
As of 4:00 PM on Thursday 23 Oct 2014 (Local Time) from LKNA Reporting Station
Overcast Overcast  
Wind Chill: 36°   Ceiling: 1100
Heat Index: 45°   Visibility: 6mi
Dew Point: 43°   Wind: 21mph
Humidity: 93%   Direction: 360°N
Pressure: 29.97"   Gusts: 33mph
Location:  48.82°N, 15.28°E
Report Text: LKNA 231400Z 36018G29KT 9999 SCT009 OVC011 07/06 Q1015 NOSIG
Loading
Personal Weather Stations






























Interactive Weather Map
Tropical Storm Tracking
New forecast layout! Learn more

10-Day Weather Forecast

Advertisements
Track Severe Weather on mobile